Terminal Aerodrome Forecast
Issued by NWS Albany, NY

Home | Current Version | Previous Version | Text Only | Print | Product List | Glossary On
Versions: 1 2 3 4 5 6 7 8 9 10 11 12 13 14 15 16 17 18 19 20 21 22 23 24 25 26 27
000
FTUS41 KALY 280854 AAA
TAFGFL
TAF AMD
KGFL 280854Z 2809/2906 00000KT P6SM SKC
      TEMPO 2809/2812 1/2SM FG VV002
     FM281200 VRB02KT 2SM BR BKN007 OVC035
     FM281300 18005KT P6SM SCT100 BKN200
     FM281600 19007KT P6SM SCT050 BKN150=

USA.gov is the U.S. government's official web portal to all federal, state and local government web resources and services.